sensor_id;sensor_type;location;lat;lon;timestamp;P1;durP1;ratioP1;P2;durP2;ratioP2
13443;SDS011;6794;59.218;18.218;2023-02-28T00:00:25;13.60;;;8.53;;
13443;SDS011;6794;59.218;18.218;2023-02-28T00:02:51;13.17;;;8.90;;
13443;SDS011;6794;59.218;18.218;2023-02-28T00:05:19;14.83;;;9.30;;
13443;SDS011;6794;59.218;18.218;2023-02-28T00:07:48;16.50;;;9.67;;
13443;SDS011;6794;59.218;18.218;2023-02-28T00:10:16;14.00;;;8.37;;
13443;SDS011;6794;59.218;18.218;2023-02-28T00:12:48;7.77;;;4.63;;
13443;SDS011;6794;59.218;18.218;2023-02-28T00:15:14;15.90;;;10.68;;
13443;SDS011;6794;59.218;18.218;2023-02-28T00:17:41;12.93;;;8.90;;
13443;SDS011;6794;59.218;18.218;2023-02-28T00:20:10;12.43;;;8.13;;
13443;SDS011;6794;59.218;18.218;2023-02-28T00:22:41;12.10;;;7.73;;
13443;SDS011;6794;59.218;18.218;2023-02-28T00:25:12;12.17;;;7.73;;
13443;SDS011;6794;59.218;18.218;2023-02-28T00:27:38;14.97;;;8.00;;
13443;SDS011;6794;59.218;18.218;2023-02-28T00:30:06;12.93;;;8.07;;
13443;SDS011;6794;59.218;18.218;2023-02-28T00:32:32;10.97;;;6.83;;
13443;SDS011;6794;59.218;18.218;2023-02-28T00:34:59;11.83;;;8.13;;
13443;SDS011;6794;59.218;18.218;2023-02-28T00:37:28;11.93;;;8.23;;
13443;SDS011;6794;59.218;18.218;2023-02-28T00:39:54;11.33;;;6.93;;
13443;SDS011;6794;59.218;18.218;2023-02-28T00:42:20;10.23;;;5.77;;
13443;SDS011;6794;59.218;18.218;2023-02-28T00:44:46;8.90;;;5.97;;
13443;SDS011;6794;59.218;18.218;2023-02-28T00:47:12;10.20;;;6.27;;
13443;SDS011;6794;59.218;18.218;2023-02-28T00:49:39;9.37;;;5.37;;
13443;SDS011;6794;59.218;18.218;2023-02-28T00:52:05;9.10;;;6.13;;
13443;SDS011;6794;59.218;18.218;2023-02-28T00:54:31;7.40;;;4.67;;
13443;SDS011;6794;59.218;18.218;2023-02-28T00:56:57;7.73;;;4.63;;
13443;SDS011;6794;59.218;18.218;2023-02-28T00:59:23;6.73;;;4.70;;
13443;SDS011;6794;59.218;18.218;2023-02-28T01:01:49;7.27;;;4.23;;
13443;SDS011;6794;59.218;18.218;2023-02-28T01:04:15;6.93;;;4.53;;
13443;SDS011;6794;59.218;18.218;2023-02-28T01:06:41;7.43;;;4.93;;
13443;SDS011;6794;59.218;18.218;2023-02-28T01:09:08;5.73;;;4.33;;
13443;SDS011;6794;59.218;18.218;2023-02-28T01:11:34;7.77;;;4.77;;
13443;SDS011;6794;59.218;18.218;2023-02-28T01:14:00;8.27;;;4.77;;
13443;SDS011;6794;59.218;18.218;2023-02-28T01:16:26;8.17;;;4.20;;
13443;SDS011;6794;59.218;18.218;2023-02-28T01:18:53;5.70;;;4.30;;
13443;SDS011;6794;59.218;18.218;2023-02-28T01:21:20;3.67;;;2.93;;
13443;SDS011;6794;59.218;18.218;2023-02-28T01:23:46;5.80;;;4.13;;
13443;SDS011;6794;59.218;18.218;2023-02-28T01:26:14;4.63;;;2.83;;
13443;SDS011;6794;59.218;18.218;2023-02-28T01:28:40;4.67;;;3.30;;
13443;SDS011;6794;59.218;18.218;2023-02-28T01:31:07;3.70;;;2.97;;
13443;SDS011;6794;59.218;18.218;2023-02-28T01:33:33;4.95;;;3.78;;
13443;SDS011;6794;59.218;18.218;2023-02-28T01:35:59;4.63;;;2.20;;
13443;SDS011;6794;59.218;18.218;2023-02-28T01:38:26;3.80;;;2.60;;
13443;SDS011;6794;59.218;18.218;2023-02-28T01:40:53;4.60;;;2.43;;
13443;SDS011;6794;59.218;18.218;2023-02-28T01:43:23;3.27;;;2.03;;
13443;SDS011;6794;59.218;18.218;2023-02-28T01:45:50;4.67;;;3.10;;
13443;SDS011;6794;59.218;18.218;2023-02-28T01:48:16;3.53;;;2.73;;
13443;SDS011;6794;59.218;18.218;2023-02-28T01:50:44;3.73;;;2.83;;
13443;SDS011;6794;59.218;18.218;2023-02-28T01:53:13;4.77;;;3.40;;
13443;SDS011;6794;59.218;18.218;2023-02-28T01:55:40;5.40;;;3.23;;
13443;SDS011;6794;59.218;18.218;2023-02-28T01:58:10;5.07;;;3.33;;
13443;SDS011;6794;59.218;18.218;2023-02-28T02:00:36;3.97;;;2.93;;
13443;SDS011;6794;59.218;18.218;2023-02-28T02:03:08;6.43;;;3.87;;
13443;SDS011;6794;59.218;18.218;2023-02-28T02:05:34;5.50;;;3.10;;
13443;SDS011;6794;59.218;18.218;2023-02-28T02:08:03;3.97;;;2.67;;
13443;SDS011;6794;59.218;18.218;2023-02-28T02:10:32;5.47;;;3.47;;
13443;SDS011;6794;59.218;18.218;2023-02-28T02:15:36;3.30;;;2.23;;
13443;SDS011;6794;59.218;18.218;2023-02-28T02:18:28;1.37;;;1.20;;
13443;SDS011;6794;59.218;18.218;2023-02-28T02:31:32;1.43;;;1.20;;
13443;SDS011;6794;59.218;18.218;2023-02-28T02:36:46;1.83;;;1.20;;
13443;SDS011;6794;59.218;18.218;2023-02-28T02:42:02;1.00;;;0.73;;
13443;SDS011;6794;59.218;18.218;2023-02-28T02:44:36;0.97;;;0.70;;
13443;SDS011;6794;59.218;18.218;2023-02-28T02:47:10;1.03;;;0.70;;
13443;SDS011;6794;59.218;18.218;2023-02-28T02:49:38;1.37;;;0.80;;
13443;SDS011;6794;59.218;18.218;2023-02-28T02:52:06;1.30;;;1.10;;
13443;SDS011;6794;59.218;18.218;2023-02-28T02:54:34;0.97;;;0.80;;
13443;SDS011;6794;59.218;18.218;2023-02-28T02:57:03;0.87;;;0.80;;
13443;SDS011;6794;59.218;18.218;2023-02-28T02:59:30;0.80;;;0.63;;
13443;SDS011;6794;59.218;18.218;2023-02-28T03:02:01;1.00;;;0.80;;
13443;SDS011;6794;59.218;18.218;2023-02-28T03:04:40;1.10;;;0.90;;
13443;SDS011;6794;59.218;18.218;2023-02-28T03:07:11;1.20;;;1.00;;
13443;SDS011;6794;59.218;18.218;2023-02-28T03:09:37;1.47;;;0.80;;
13443;SDS011;6794;59.218;18.218;2023-02-28T03:12:03;0.93;;;0.93;;
13443;SDS011;6794;59.218;18.218;2023-02-28T03:15:32;1.00;;;0.90;;
13443;SDS011;6794;59.218;18.218;2023-02-28T03:25:11;0.70;;;0.70;;
13443;SDS011;6794;59.218;18.218;2023-02-28T03:30:14;1.27;;;0.70;;
13443;SDS011;6794;59.218;18.218;2023-02-28T03:32:45;1.43;;;0.70;;
13443;SDS011;6794;59.218;18.218;2023-02-28T03:35:17;1.90;;;0.80;;
13443;SDS011;6794;59.218;18.218;2023-02-28T03:38:00;0.70;;;0.70;;
13443;SDS011;6794;59.218;18.218;2023-02-28T03:40:29;0.97;;;0.80;;
13443;SDS011;6794;59.218;18.218;2023-02-28T03:42:57;0.77;;;0.77;;
13443;SDS011;6794;59.218;18.218;2023-02-28T03:45:29;1.27;;;0.60;;
13443;SDS011;6794;59.218;18.218;2023-02-28T03:48:01;0.40;;;0.40;;
13443;SDS011;6794;59.218;18.218;2023-02-28T03:50:44;1.13;;;0.80;;
13443;SDS011;6794;59.218;18.218;2023-02-28T03:53:34;0.73;;;0.70;;
13443;SDS011;6794;59.218;18.218;2023-02-28T03:56:25;1.00;;;0.70;;
13443;SDS011;6794;59.218;18.218;2023-02-28T03:59:17;0.53;;;0.50;;
13443;SDS011;6794;59.218;18.218;2023-02-28T04:01:47;0.80;;;0.77;;
13443;SDS011;6794;59.218;18.218;2023-02-28T04:04:14;1.63;;;0.60;;
13443;SDS011;6794;59.218;18.218;2023-02-28T04:06:41;0.60;;;0.60;;
13443;SDS011;6794;59.218;18.218;2023-02-28T04:09:10;1.17;;;0.77;;
13443;SDS011;6794;59.218;18.218;2023-02-28T04:11:38;1.00;;;0.90;;
13443;SDS011;6794;59.218;18.218;2023-02-28T04:14:05;0.83;;;0.83;;
13443;SDS011;6794;59.218;18.218;2023-02-28T04:16:32;0.67;;;0.67;;
13443;SDS011;6794;59.218;18.218;2023-02-28T04:18:58;0.67;;;0.67;;
13443;SDS011;6794;59.218;18.218;2023-02-28T04:21:37;0.80;;;0.80;;
13443;SDS011;6794;59.218;18.218;2023-02-28T04:24:04;1.00;;;0.90;;
13443;SDS011;6794;59.218;18.218;2023-02-28T04:26:31;1.20;;;0.70;;
13443;SDS011;6794;59.218;18.218;2023-02-28T04:28:57;0.70;;;0.70;;
13443;SDS011;6794;59.218;18.218;2023-02-28T04:31:23;1.27;;;0.87;;
13443;SDS011;6794;59.218;18.218;2023-02-28T04:33:50;1.47;;;0.67;;
13443;SDS011;6794;59.218;18.218;2023-02-28T04:36:16;0.50;;;0.50;;
13443;SDS011;6794;59.218;18.218;2023-02-28T04:38:45;1.43;;;0.97;;
13443;SDS011;6794;59.218;18.218;2023-02-28T04:41:12;0.83;;;0.83;;
13443;SDS011;6794;59.218;18.218;2023-02-28T04:43:38;0.80;;;0.80;;
13443;SDS011;6794;59.218;18.218;2023-02-28T04:46:04;1.27;;;0.70;;
13443;SDS011;6794;59.218;18.218;2023-02-28T04:48:31;2.03;;;0.80;;
13443;SDS011;6794;59.218;18.218;2023-02-28T04:51:02;1.00;;;0.90;;
13443;SDS011;6794;59.218;18.218;2023-02-28T04:53:28;0.70;;;0.70;;
13443;SDS011;6794;59.218;18.218;2023-02-28T04:55:55;1.13;;;0.60;;
13443;SDS011;6794;59.218;18.218;2023-02-28T04:58:21;1.27;;;0.63;;
13443;SDS011;6794;59.218;18.218;2023-02-28T05:00:48;0.70;;;0.70;;
13443;SDS011;6794;59.218;18.218;2023-02-28T05:03:14;1.83;;;0.60;;
13443;SDS011;6794;59.218;18.218;2023-02-28T05:05:41;0.57;;;0.57;;
13443;SDS011;6794;59.218;18.218;2023-02-28T05:08:07;0.70;;;0.63;;
13443;SDS011;6794;59.218;18.218;2023-02-28T05:10:34;0.93;;;0.80;;
13443;SDS011;6794;59.218;18.218;2023-02-28T05:13:00;0.60;;;0.60;;
13443;SDS011;6794;59.218;18.218;2023-02-28T05:15:26;0.70;;;0.70;;
13443;SDS011;6794;59.218;18.218;2023-02-28T05:17:52;1.00;;;0.70;;
13443;SDS011;6794;59.218;18.218;2023-02-28T05:20:18;1.10;;;0.70;;
13443;SDS011;6794;59.218;18.218;2023-02-28T05:22:46;1.33;;;0.80;;
13443;SDS011;6794;59.218;18.218;2023-02-28T05:25:13;0.60;;;0.60;;
13443;SDS011;6794;59.218;18.218;2023-02-28T05:27:41;0.80;;;0.65;;
13443;SDS011;6794;59.218;18.218;2023-02-28T05:30:07;0.67;;;0.67;;
13443;SDS011;6794;59.218;18.218;2023-02-28T05:32:35;0.60;;;0.60;;
13443;SDS011;6794;59.218;18.218;2023-02-28T05:35:01;1.63;;;0.80;;
13443;SDS011;6794;59.218;18.218;2023-02-28T05:37:27;1.40;;;0.70;;
13443;SDS011;6794;59.218;18.218;2023-02-28T05:39:53;1.00;;;0.90;;
13443;SDS011;6794;59.218;18.218;2023-02-28T05:42:19;1.93;;;0.73;;
13443;SDS011;6794;59.218;18.218;2023-02-28T05:44:46;0.50;;;0.50;;
13443;SDS011;6794;59.218;18.218;2023-02-28T05:47:12;1.30;;;0.80;;
13443;SDS011;6794;59.218;18.218;2023-02-28T05:49:40;1.13;;;0.83;;
13443;SDS011;6794;59.218;18.218;2023-02-28T05:52:06;2.03;;;1.20;;
13443;SDS011;6794;59.218;18.218;2023-02-28T05:54:33;2.73;;;1.50;;
13443;SDS011;6794;59.218;18.218;2023-02-28T05:56:59;3.67;;;1.20;;
13443;SDS011;6794;59.218;18.218;2023-02-28T05:59:25;2.30;;;1.40;;
13443;SDS011;6794;59.218;18.218;2023-02-28T06:01:51;1.43;;;1.20;;
13443;SDS011;6794;59.218;18.218;2023-02-28T06:04:18;1.10;;;1.00;;
13443;SDS011;6794;59.218;18.218;2023-02-28T06:06:45;1.48;;;1.10;;
13443;SDS011;6794;59.218;18.218;2023-02-28T06:09:11;1.03;;;0.93;;
13443;SDS011;6794;59.218;18.218;2023-02-28T06:11:37;1.53;;;1.37;;
13443;SDS011;6794;59.218;18.218;2023-02-28T06:14:04;7.00;;;4.13;;
13443;SDS011;6794;59.218;18.218;2023-02-28T06:16:31;3.20;;;2.80;;
13443;SDS011;6794;59.218;18.218;2023-02-28T06:18:58;1.97;;;1.23;;
13443;SDS011;6794;59.218;18.218;2023-02-28T06:21:24;2.20;;;1.47;;
13443;SDS011;6794;59.218;18.218;2023-02-28T06:23:52;1.30;;;1.10;;
13443;SDS011;6794;59.218;18.218;2023-02-28T06:26:18;2.03;;;1.40;;
13443;SDS011;6794;59.218;18.218;2023-02-28T06:28:44;1.10;;;1.00;;
13443;SDS011;6794;59.218;18.218;2023-02-28T06:31:11;1.73;;;1.10;;
13443;SDS011;6794;59.218;18.218;2023-02-28T06:33:38;1.47;;;0.97;;
13443;SDS011;6794;59.218;18.218;2023-02-28T06:36:04;2.10;;;0.97;;
13443;SDS011;6794;59.218;18.218;2023-02-28T06:38:31;1.63;;;1.10;;
13443;SDS011;6794;59.218;18.218;2023-02-28T06:40:58;2.57;;;1.20;;
13443;SDS011;6794;59.218;18.218;2023-02-28T06:43:25;1.60;;;1.00;;
13443;SDS011;6794;59.218;18.218;2023-02-28T06:45:53;0.60;;;0.60;;
13443;SDS011;6794;59.218;18.218;2023-02-28T06:48:20;1.40;;;1.17;;
13443;SDS011;6794;59.218;18.218;2023-02-28T06:50:46;1.77;;;1.03;;
13443;SDS011;6794;59.218;18.218;2023-02-28T06:53:12;2.17;;;1.00;;
13443;SDS011;6794;59.218;18.218;2023-02-28T06:55:38;1.37;;;0.90;;
13443;SDS011;6794;59.218;18.218;2023-02-28T06:58:04;0.73;;;0.73;;
13443;SDS011;6794;59.218;18.218;2023-02-28T07:00:43;1.23;;;0.90;;
13443;SDS011;6794;59.218;18.218;2023-02-28T07:03:10;0.70;;;0.70;;
13443;SDS011;6794;59.218;18.218;2023-02-28T07:05:37;1.03;;;0.80;;
13443;SDS011;6794;59.218;18.218;2023-02-28T07:08:03;0.83;;;0.80;;
13443;SDS011;6794;59.218;18.218;2023-02-28T07:10:30;0.70;;;0.67;;
13443;SDS011;6794;59.218;18.218;2023-02-28T07:12:57;1.83;;;0.83;;
13443;SDS011;6794;59.218;18.218;2023-02-28T07:15:23;1.23;;;0.90;;
13443;SDS011;6794;59.218;18.218;2023-02-28T07:17:49;1.10;;;1.00;;
13443;SDS011;6794;59.218;18.218;2023-02-28T07:20:16;1.70;;;1.10;;
13443;SDS011;6794;59.218;18.218;2023-02-28T07:22:42;1.10;;;1.00;;
13443;SDS011;6794;59.218;18.218;2023-02-28T07:25:08;1.90;;;1.10;;
13443;SDS011;6794;59.218;18.218;2023-02-28T07:27:34;1.00;;;0.70;;
13443;SDS011;6794;59.218;18.218;2023-02-28T07:30:01;0.90;;;0.80;;
13443;SDS011;6794;59.218;18.218;2023-02-28T07:32:28;0.40;;;0.40;;
13443;SDS011;6794;59.218;18.218;2023-02-28T07:34:54;0.60;;;0.60;;
13443;SDS011;6794;59.218;18.218;2023-02-28T07:37:21;2.03;;;0.70;;
13443;SDS011;6794;59.218;18.218;2023-02-28T07:39:47;0.60;;;0.60;;
13443;SDS011;6794;59.218;18.218;2023-02-28T07:42:13;1.60;;;0.60;;
13443;SDS011;6794;59.218;18.218;2023-02-28T07:44:39;0.60;;;0.50;;
13443;SDS011;6794;59.218;18.218;2023-02-28T07:47:06;1.60;;;0.50;;
13443;SDS011;6794;59.218;18.218;2023-02-28T07:49:33;1.03;;;0.40;;
13443;SDS011;6794;59.218;18.218;2023-02-28T07:52:00;0.43;;;0.40;;
13443;SDS011;6794;59.218;18.218;2023-02-28T07:54:26;0.70;;;0.60;;
13443;SDS011;6794;59.218;18.218;2023-02-28T07:56:52;0.60;;;0.60;;
13443;SDS011;6794;59.218;18.218;2023-02-28T07:59:18;1.80;;;0.50;;
13443;SDS011;6794;59.218;18.218;2023-02-28T08:01:44;0.60;;;0.60;;
13443;SDS011;6794;59.218;18.218;2023-02-28T08:04:10;0.80;;;0.40;;
13443;SDS011;6794;59.218;18.218;2023-02-28T08:06:36;0.47;;;0.45;;
13443;SDS011;6794;59.218;18.218;2023-02-28T08:09:02;0.93;;;0.57;;
13443;SDS011;6794;59.218;18.218;2023-02-28T08:11:28;0.70;;;0.50;;
13443;SDS011;6794;59.218;18.218;2023-02-28T08:13:54;0.70;;;0.50;;
13443;SDS011;6794;59.218;18.218;2023-02-28T08:16:20;0.50;;;0.40;;
13443;SDS011;6794;59.218;18.218;2023-02-28T08:18:56;0.33;;;0.33;;
13443;SDS011;6794;59.218;18.218;2023-02-28T08:21:22;0.50;;;0.50;;
13443;SDS011;6794;59.218;18.218;2023-02-28T08:23:48;0.50;;;0.43;;
13443;SDS011;6794;59.218;18.218;2023-02-28T08:26:15;0.43;;;0.40;;
13443;SDS011;6794;59.218;18.218;2023-02-28T08:28:41;0.40;;;0.40;;
13443;SDS011;6794;59.218;18.218;2023-02-28T08:31:11;0.67;;;0.50;;
13443;SDS011;6794;59.218;18.218;2023-02-28T08:33:38;0.83;;;0.60;;
13443;SDS011;6794;59.218;18.218;2023-02-28T08:36:05;0.43;;;0.43;;
13443;SDS011;6794;59.218;18.218;2023-02-28T08:38:32;0.40;;;0.40;;
13443;SDS011;6794;59.218;18.218;2023-02-28T08:40:58;1.07;;;0.50;;
13443;SDS011;6794;59.218;18.218;2023-02-28T08:43:25;0.67;;;0.60;;
13443;SDS011;6794;59.218;18.218;2023-02-28T08:45:51;0.70;;;0.60;;
13443;SDS011;6794;59.218;18.218;2023-02-28T08:48:17;0.90;;;0.77;;
13443;SDS011;6794;59.218;18.218;2023-02-28T08:50:44;1.07;;;0.70;;
13443;SDS011;6794;59.218;18.218;2023-02-28T08:53:10;0.50;;;0.40;;
13443;SDS011;6794;59.218;18.218;2023-02-28T08:55:36;0.93;;;0.20;;
13443;SDS011;6794;59.218;18.218;2023-02-28T08:58:02;0.63;;;0.40;;
13443;SDS011;6794;59.218;18.218;2023-02-28T09:00:28;0.40;;;0.40;;
13443;SDS011;6794;59.218;18.218;2023-02-28T09:02:54;0.40;;;0.40;;
13443;SDS011;6794;59.218;18.218;2023-02-28T09:05:20;0.30;;;0.30;;
13443;SDS011;6794;59.218;18.218;2023-02-28T09:07:46;1.03;;;0.40;;
13443;SDS011;6794;59.218;18.218;2023-02-28T09:10:12;1.13;;;0.57;;
13443;SDS011;6794;59.218;18.218;2023-02-28T09:12:38;0.47;;;0.30;;
13443;SDS011;6794;59.218;18.218;2023-02-28T09:15:05;0.40;;;0.33;;
13443;SDS011;6794;59.218;18.218;2023-02-28T09:17:31;0.27;;;0.27;;
13443;SDS011;6794;59.218;18.218;2023-02-28T09:19:57;4.50;;;1.47;;
13443;SDS011;6794;59.218;18.218;2023-02-28T09:22:23;0.50;;;0.47;;
13443;SDS011;6794;59.218;18.218;2023-02-28T09:24:50;1.08;;;0.50;;
13443;SDS011;6794;59.218;18.218;2023-02-28T09:27:16;1.13;;;0.47;;
13443;SDS011;6794;59.218;18.218;2023-02-28T09:29:42;1.07;;;0.83;;
13443;SDS011;6794;59.218;18.218;2023-02-28T09:32:08;1.23;;;0.43;;
13443;SDS011;6794;59.218;18.218;2023-02-28T09:34:34;0.70;;;0.33;;
13443;SDS011;6794;59.218;18.218;2023-02-28T09:37:01;0.40;;;0.27;;
13443;SDS011;6794;59.218;18.218;2023-02-28T09:39:27;1.87;;;0.33;;
13443;SDS011;6794;59.218;18.218;2023-02-28T09:41:54;0.40;;;0.40;;
13443;SDS011;6794;59.218;18.218;2023-02-28T09:47:18;0.40;;;0.40;;
13443;SDS011;6794;59.218;18.218;2023-02-28T09:49:47;0.50;;;0.40;;
13443;SDS011;6794;59.218;18.218;2023-02-28T09:52:32;0.20;;;0.20;;
13443;SDS011;6794;59.218;18.218;2023-02-28T09:57:58;0.30;;;0.30;;
13443;SDS011;6794;59.218;18.218;2023-02-28T10:05:51;0.40;;;0.30;;
13443;SDS011;6794;59.218;18.218;2023-02-28T10:08:26;0.30;;;0.30;;
13443;SDS011;6794;59.218;18.218;2023-02-28T10:10:56;0.83;;;0.30;;
13443;SDS011;6794;59.218;18.218;2023-02-28T10:16:10;0.37;;;0.37;;
13443;SDS011;6794;59.218;18.218;2023-02-28T10:18:42;1.93;;;0.40;;
13443;SDS011;6794;59.218;18.218;2023-02-28T10:21:13;0.27;;;0.23;;
13443;SDS011;6794;59.218;18.218;2023-02-28T10:23:43;0.53;;;0.40;;
13443;SDS011;6794;59.218;18.218;2023-02-28T10:26:13;0.80;;;0.40;;
13443;SDS011;6794;59.218;18.218;2023-02-28T10:28:41;0.70;;;0.50;;
13443;SDS011;6794;59.218;18.218;2023-02-28T10:31:10;0.33;;;0.30;;
13443;SDS011;6794;59.218;18.218;2023-02-28T10:33:37;0.30;;;0.30;;
13443;SDS011;6794;59.218;18.218;2023-02-28T10:36:03;0.30;;;0.23;;
13443;SDS011;6794;59.218;18.218;2023-02-28T10:38:35;0.83;;;0.30;;
13443;SDS011;6794;59.218;18.218;2023-02-28T10:41:05;0.60;;;0.50;;
13443;SDS011;6794;59.218;18.218;2023-02-28T10:43:31;0.40;;;0.40;;
13443;SDS011;6794;59.218;18.218;2023-02-28T10:51:13;1.17;;;0.63;;
13443;SDS011;6794;59.218;18.218;2023-02-28T11:03:57;1.60;;;0.30;;
13443;SDS011;6794;59.218;18.218;2023-02-28T11:06:31;0.30;;;0.30;;
13443;SDS011;6794;59.218;18.218;2023-02-28T11:09:04;0.83;;;0.27;;
13443;SDS011;6794;59.218;18.218;2023-02-28T11:11:41;0.30;;;0.30;;
13443;SDS011;6794;59.218;18.218;2023-02-28T11:14:14;0.60;;;0.50;;
13443;SDS011;6794;59.218;18.218;2023-02-28T11:16:43;0.30;;;0.30;;
13443;SDS011;6794;59.218;18.218;2023-02-28T11:19:15;0.30;;;0.30;;
13443;SDS011;6794;59.218;18.218;2023-02-28T11:21:45;1.13;;;0.60;;
13443;SDS011;6794;59.218;18.218;2023-02-28T11:24:24;0.20;;;0.20;;
13443;SDS011;6794;59.218;18.218;2023-02-28T11:26:51;0.63;;;0.50;;
13443;SDS011;6794;59.218;18.218;2023-02-28T11:29:19;0.50;;;0.37;;
13443;SDS011;6794;59.218;18.218;2023-02-28T11:32:07;1.50;;;0.40;;
13443;SDS011;6794;59.218;18.218;2023-02-28T11:34:37;0.60;;;0.50;;
13443;SDS011;6794;59.218;18.218;2023-02-28T11:37:04;0.30;;;0.30;;
13443;SDS011;6794;59.218;18.218;2023-02-28T11:39:32;1.33;;;0.30;;
13443;SDS011;6794;59.218;18.218;2023-02-28T11:42:02;0.30;;;0.30;;
13443;SDS011;6794;59.218;18.218;2023-02-28T11:50:03;0.40;;;0.23;;
13443;SDS011;6794;59.218;18.218;2023-02-28T11:55:11;0.37;;;0.30;;
13443;SDS011;6794;59.218;18.218;2023-02-28T12:05:45;0.77;;;0.53;;
13443;SDS011;6794;59.218;18.218;2023-02-28T12:10:53;0.60;;;0.60;;
13443;SDS011;6794;59.218;18.218;2023-02-28T12:13:31;1.03;;;0.87;;
13443;SDS011;6794;59.218;18.218;2023-02-28T12:16:13;1.63;;;0.70;;
13443;SDS011;6794;59.218;18.218;2023-02-28T12:24:11;1.40;;;0.50;;
13443;SDS011;6794;59.218;18.218;2023-02-28T12:26:40;0.50;;;0.50;;
13443;SDS011;6794;59.218;18.218;2023-02-28T12:29:19;1.13;;;0.50;;
13443;SDS011;6794;59.218;18.218;2023-02-28T12:32:25;2.13;;;0.50;;
13443;SDS011;6794;59.218;18.218;2023-02-28T12:34:42;0.83;;;0.73;;
13443;SDS011;6794;59.218;18.218;2023-02-28T12:37:12;0.63;;;0.53;;
13443;SDS011;6794;59.218;18.218;2023-02-28T12:39:41;0.70;;;0.60;;
13443;SDS011;6794;59.218;18.218;2023-02-28T12:42:13;1.03;;;0.80;;
13443;SDS011;6794;59.218;18.218;2023-02-28T12:44:46;0.80;;;0.70;;
13443;SDS011;6794;59.218;18.218;2023-02-28T12:47:16;1.00;;;0.80;;
13443;SDS011;6794;59.218;18.218;2023-02-28T12:49:48;1.07;;;0.80;;
13443;SDS011;6794;59.218;18.218;2023-02-28T12:52:17;0.87;;;0.60;;
13443;SDS011;6794;59.218;18.218;2023-02-28T12:54:55;0.60;;;0.57;;
13443;SDS011;6794;59.218;18.218;2023-02-28T12:57:25;1.73;;;0.70;;
13443;SDS011;6794;59.218;18.218;2023-02-28T12:59:55;0.50;;;0.50;;
13443;SDS011;6794;59.218;18.218;2023-02-28T13:05:06;0.53;;;0.40;;
13443;SDS011;6794;59.218;18.218;2023-02-28T13:10:08;1.50;;;0.60;;
13443;SDS011;6794;59.218;18.218;2023-02-28T13:12:35;1.15;;;0.60;;
13443;SDS011;6794;59.218;18.218;2023-02-28T13:15:07;0.30;;;0.30;;
13443;SDS011;6794;59.218;18.218;2023-02-28T13:17:37;0.70;;;0.47;;
13443;SDS011;6794;59.218;18.218;2023-02-28T13:20:04;2.60;;;1.47;;
13443;SDS011;6794;59.218;18.218;2023-02-28T13:22:49;1.77;;;1.13;;
13443;SDS011;6794;59.218;18.218;2023-02-28T13:27:58;0.87;;;0.77;;
13443;SDS011;6794;59.218;18.218;2023-02-28T13:33:29;1.30;;;0.80;;
13443;SDS011;6794;59.218;18.218;2023-02-28T13:38:41;2.17;;;0.67;;
13443;SDS011;6794;59.218;18.218;2023-02-28T13:46:28;0.50;;;0.50;;
13443;SDS011;6794;59.218;18.218;2023-02-28T13:48:54;0.50;;;0.50;;
13443;SDS011;6794;59.218;18.218;2023-02-28T13:59:28;1.83;;;0.47;;
13443;SDS011;6794;59.218;18.218;2023-02-28T14:02:11;0.83;;;0.50;;
13443;SDS011;6794;59.218;18.218;2023-02-28T14:07:20;1.10;;;0.83;;
13443;SDS011;6794;59.218;18.218;2023-02-28T14:09:49;0.83;;;0.70;;
13443;SDS011;6794;59.218;18.218;2023-02-28T14:15:02;1.10;;;1.00;;
13443;SDS011;6794;59.218;18.218;2023-02-28T14:17:28;1.77;;;1.30;;
13443;SDS011;6794;59.218;18.218;2023-02-28T14:19:54;1.30;;;0.80;;
13443;SDS011;6794;59.218;18.218;2023-02-28T14:35:39;2.10;;;0.50;;
13443;SDS011;6794;59.218;18.218;2023-02-28T14:38:07;0.63;;;0.50;;
13443;SDS011;6794;59.218;18.218;2023-02-28T14:40:39;3.43;;;0.80;;
13443;SDS011;6794;59.218;18.218;2023-02-28T14:43:15;0.80;;;0.50;;
13443;SDS011;6794;59.218;18.218;2023-02-28T14:45:44;0.50;;;0.50;;
13443;SDS011;6794;59.218;18.218;2023-02-28T14:48:15;2.13;;;0.93;;
13443;SDS011;6794;59.218;18.218;2023-02-28T14:50:42;0.60;;;0.60;;
13443;SDS011;6794;59.218;18.218;2023-02-28T14:53:15;1.23;;;0.73;;
13443;SDS011;6794;59.218;18.218;2023-02-28T14:55:44;3.10;;;0.90;;
13443;SDS011;6794;59.218;18.218;2023-02-28T14:58:21;0.77;;;0.77;;
13443;SDS011;6794;59.218;18.218;2023-02-28T15:00:48;1.30;;;0.70;;
13443;SDS011;6794;59.218;18.218;2023-02-28T15:03:19;2.37;;;0.90;;
13443;SDS011;6794;59.218;18.218;2023-02-28T15:06:18;2.47;;;0.80;;
13443;SDS011;6794;59.218;18.218;2023-02-28T15:08:37;1.97;;;0.60;;
13443;SDS011;6794;59.218;18.218;2023-02-28T15:13:34;1.00;;;0.90;;
13443;SDS011;6794;59.218;18.218;2023-02-28T15:16:03;1.70;;;1.07;;
13443;SDS011;6794;59.218;18.218;2023-02-28T15:21:12;1.70;;;1.20;;
13443;SDS011;6794;59.218;18.218;2023-02-28T15:23:39;2.37;;;1.17;;
13443;SDS011;6794;59.218;18.218;2023-02-28T15:26:06;2.43;;;1.30;;
13443;SDS011;6794;59.218;18.218;2023-02-28T15:28:33;1.60;;;1.20;;
13443;SDS011;6794;59.218;18.218;2023-02-28T15:31:00;4.33;;;1.50;;
13443;SDS011;6794;59.218;18.218;2023-02-28T15:33:28;1.98;;;1.35;;
13443;SDS011;6794;59.218;18.218;2023-02-28T15:38:50;1.90;;;1.20;;
13443;SDS011;6794;59.218;18.218;2023-02-28T15:41:30;2.13;;;1.10;;
13443;SDS011;6794;59.218;18.218;2023-02-28T15:44:15;1.40;;;1.17;;
13443;SDS011;6794;59.218;18.218;2023-02-28T15:47:01;2.13;;;1.27;;
13443;SDS011;6794;59.218;18.218;2023-02-28T15:49:28;2.80;;;1.53;;
13443;SDS011;6794;59.218;18.218;2023-02-28T15:51:56;1.43;;;1.30;;
13443;SDS011;6794;59.218;18.218;2023-02-28T15:54:24;1.90;;;1.30;;
13443;SDS011;6794;59.218;18.218;2023-02-28T15:56:53;3.07;;;1.47;;
13443;SDS011;6794;59.218;18.218;2023-02-28T15:59:25;2.83;;;1.60;;
13443;SDS011;6794;59.218;18.218;2023-02-28T16:02:02;3.83;;;1.60;;
13443;SDS011;6794;59.218;18.218;2023-02-28T16:04:29;2.23;;;2.03;;
13443;SDS011;6794;59.218;18.218;2023-02-28T16:09:25;2.58;;;1.88;;
13443;SDS011;6794;59.218;18.218;2023-02-28T16:11:53;2.07;;;1.57;;
13443;SDS011;6794;59.218;18.218;2023-02-28T16:14:25;2.60;;;1.43;;
13443;SDS011;6794;59.218;18.218;2023-02-28T16:16:53;1.73;;;1.10;;
13443;SDS011;6794;59.218;18.218;2023-02-28T16:19:20;3.27;;;1.27;;
13443;SDS011;6794;59.218;18.218;2023-02-28T16:21:46;13.87;;;10.33;;
13443;SDS011;6794;59.218;18.218;2023-02-28T16:24:12;10.27;;;6.17;;
13443;SDS011;6794;59.218;18.218;2023-02-28T16:26:42;3.53;;;2.20;;
13443;SDS011;6794;59.218;18.218;2023-02-28T16:29:44;3.57;;;2.00;;
13443;SDS011;6794;59.218;18.218;2023-02-28T16:32:06;2.57;;;1.73;;
13443;SDS011;6794;59.218;18.218;2023-02-28T16:34:33;2.80;;;1.27;;
13443;SDS011;6794;59.218;18.218;2023-02-28T16:36:59;3.30;;;2.00;;
13443;SDS011;6794;59.218;18.218;2023-02-28T16:39:25;2.87;;;2.20;;
13443;SDS011;6794;59.218;18.218;2023-02-28T16:41:51;3.20;;;2.20;;
13443;SDS011;6794;59.218;18.218;2023-02-28T16:44:26;2.30;;;1.70;;
13443;SDS011;6794;59.218;18.218;2023-02-28T16:46:53;3.05;;;1.63;;
13443;SDS011;6794;59.218;18.218;2023-02-28T16:49:19;5.90;;;2.47;;
13443;SDS011;6794;59.218;18.218;2023-02-28T16:51:45;6.17;;;3.00;;
13443;SDS011;6794;59.218;18.218;2023-02-28T16:54:12;10.00;;;4.03;;
13443;SDS011;6794;59.218;18.218;2023-02-28T16:56:39;6.60;;;2.93;;
13443;SDS011;6794;59.218;18.218;2023-02-28T16:59:07;12.60;;;4.60;;
13443;SDS011;6794;59.218;18.218;2023-02-28T17:01:34;5.93;;;3.03;;
13443;SDS011;6794;59.218;18.218;2023-02-28T17:04:00;16.37;;;6.90;;
13443;SDS011;6794;59.218;18.218;2023-02-28T17:06:28;7.50;;;3.57;;
13443;SDS011;6794;59.218;18.218;2023-02-28T17:08:54;3.73;;;2.40;;
13443;SDS011;6794;59.218;18.218;2023-02-28T17:11:21;4.07;;;2.47;;
13443;SDS011;6794;59.218;18.218;2023-02-28T17:13:47;5.63;;;2.90;;
13443;SDS011;6794;59.218;18.218;2023-02-28T17:16:19;7.50;;;3.07;;